Staplehurst, United Kingdom
Current Conditions -  °F | °C
As of 5:20 PM on Thursday 30 Oct 2014 (Local Time) from EGMD Reporting Station
Clear Clear  
Wind Chill: 59°   Ceiling: Unl
Heat Index: 59°   Visibility: 6mi
Dew Point: 57°   Wind: 8mph
Humidity: 94%   Direction: 200°SSW
Pressure: 30.12"   Gusts: NA
Location:  51.16°N, 0.55°E
Report Text: EGMD 301720Z 20007KT CAVOK 15/14 Q1020
Loading
Personal Weather Stations






























Interactive Weather Map New forecast layout! Learn more

10-Day Weather Forecast

Advertisements
Track Severe Weather on mobile